createdAt,value
2022-08-07T00:02:40.016Z,101428.38
2022-08-07T00:04:52.437Z,101433.88
2022-08-07T00:07:20.632Z,101429.13
2022-08-07T00:09:59.187Z,101429.13
2022-08-07T00:12:33.885Z,101434.75
2022-08-07T00:15:00.232Z,101435.13
2022-08-07T00:17:26.786Z,101443.13
2022-08-07T00:20:01.104Z,101438.28
2022-08-07T00:22:35.315Z,101436.34
2022-08-07T00:25:02.724Z,101438.31
2022-08-07T00:27:52.778Z,101440.28
2022-08-07T00:30:21.690Z,101445.00
2022-08-07T00:32:54.209Z,101448.16
2022-08-07T00:35:21.443Z,101447.44
2022-08-07T00:37:49.626Z,101457.03
2022-08-07T00:40:17.228Z,101444.97
2022-08-07T00:43:03.595Z,101447.00
2022-08-07T00:45:36.449Z,101448.16
2022-08-07T00:48:10.420Z,101448.44
2022-08-07T00:50:50.483Z,101446.53
2022-08-07T00:53:20.134Z,101447.38
2022-08-07T00:56:00.485Z,101444.91
2022-08-07T00:58:28.833Z,101448.56
2022-08-07T01:00:55.286Z,101451.59
2022-08-07T01:03:25.487Z,101450.19
2022-08-07T01:06:08.008Z,101445.78
2022-08-07T01:08:34.582Z,101444.97
2022-08-07T01:11:00.936Z,101444.53
2022-08-07T01:13:55.906Z,101450.00
2022-08-07T01:16:29.988Z,101452.06
2022-08-07T01:18:57.134Z,101445.47
2022-08-07T01:21:25.888Z,101451.94
2022-08-07T01:23:52.596Z,101449.34
2022-08-07T01:26:20.249Z,101448.13
2022-08-07T01:28:48.214Z,101451.22
2022-08-07T01:31:15.312Z,101445.03
2022-08-07T01:33:54.034Z,101451.50
2022-08-07T01:36:22.753Z,101448.25
2022-08-07T01:39:00.592Z,101451.44
2022-08-07T01:41:27.064Z,101452.72
2022-08-07T01:43:53.481Z,101456.28
2022-08-07T01:46:21.410Z,101449.13
2022-08-07T01:48:47.883Z,101448.88
2022-08-07T01:51:24.351Z,101455.25
2022-08-07T01:54:12.414Z,101441.75
2022-08-07T01:56:49.308Z,101447.72
2022-08-07T01:59:16.049Z,101446.34
2022-08-07T02:02:01.607Z,101444.44
2022-08-07T02:04:28.888Z,101442.28
2022-08-07T02:06:56.826Z,101438.56
2022-08-07T02:09:52.461Z,101445.13
2022-08-07T02:12:09.566Z,101433.94
2022-08-07T02:14:40.757Z,101442.28
2022-08-07T02:17:07.667Z,101440.09
2022-08-07T02:20:05.247Z,101438.13
2022-08-07T02:22:20.377Z,101439.06
2022-08-07T02:24:46.790Z,101439.47
2022-08-07T02:27:14.929Z,101443.25
2022-08-07T02:29:48.668Z,101435.78
2022-08-07T02:32:23.379Z,101432.44
2022-08-07T02:34:51.406Z,101441.72
2022-08-07T02:37:18.706Z,101440.22
2022-08-07T02:40:02.008Z,101439.81
2022-08-07T02:42:31.903Z,101440.16
2022-08-07T02:44:58.516Z,101447.34
2022-08-07T02:47:24.924Z,101443.03
2022-08-07T02:49:58.592Z,101441.06
2022-08-07T02:52:32.079Z,101438.03
2022-08-07T02:54:58.640Z,101442.84
2022-08-07T02:57:28.695Z,101447.56
2022-08-07T03:00:01.110Z,101450.94
2022-08-07T03:02:31.559Z,101449.28
2022-08-07T03:04:58.798Z,101443.69
2022-08-07T03:08:04.679Z,101456.75
2022-08-07T03:10:12.347Z,101455.63
2022-08-07T03:12:40.810Z,101454.88
2022-08-07T03:15:07.715Z,101459.97
2022-08-07T03:17:36.393Z,101456.69
2022-08-07T03:20:21.363Z,101457.47
2022-08-07T03:22:50.362Z,101460.88
2022-08-07T03:25:16.796Z,101450.00
2022-08-07T03:27:59.221Z,101451.44
2022-08-07T03:30:26.322Z,101447.66
2022-08-07T03:32:58.872Z,101453.34
2022-08-07T03:35:27.303Z,101450.78
2022-08-07T03:38:10.543Z,101452.25
2022-08-07T03:40:39.638Z,101453.91
2022-08-07T03:43:14.380Z,101454.50
2022-08-07T03:45:43.710Z,101457.78
2022-08-07T03:48:14.121Z,101462.50
2022-08-07T03:50:52.121Z,101460.00
2022-08-07T03:53:30.278Z,101462.28
2022-08-07T03:56:10.189Z,101459.50
2022-08-07T03:59:07.098Z,101455.59
2022-08-07T04:01:26.538Z,101463.94
2022-08-07T04:03:55.457Z,101466.41
2022-08-07T04:06:37.594Z,101468.38
2022-08-07T04:09:04.902Z,101466.81
2022-08-07T04:12:23.500Z,101469.53
2022-08-07T04:14:38.937Z,101467.59
2022-08-07T04:17:05.257Z,101468.03
2022-08-07T04:19:52.440Z,101479.59
2022-08-07T04:22:22.988Z,101480.66
2022-08-07T04:24:49.473Z,101478.28
2022-08-07T04:27:35.950Z,101473.72
2022-08-07T04:30:04.425Z,101474.44
2022-08-07T04:32:34.281Z,101483.66
2022-08-07T04:35:01.454Z,101478.81
2022-08-07T04:37:30.413Z,101483.59
2022-08-07T04:40:17.626Z,101491.56
2022-08-07T04:42:46.184Z,101483.13
2022-08-07T04:45:44.394Z,101495.19
2022-08-07T04:48:10.916Z,101491.69
2022-08-07T04:50:37.443Z,101497.63
2022-08-07T04:53:06.036Z,101501.25
2022-08-07T04:58:11.093Z,101501.22
2022-08-07T04:58:32.072Z,101500.44
2022-08-07T05:01:13.539Z,101505.09
2022-08-07T05:03:59.877Z,101509.13
2022-08-07T05:06:28.087Z,101511.25
2022-08-07T05:09:00.958Z,101511.59
2022-08-07T05:11:56.837Z,101520.00
2022-08-07T05:14:53.190Z,101524.38
2022-08-07T05:17:01.123Z,101528.38
2022-08-07T05:19:44.143Z,101530.38
2022-08-07T05:22:11.625Z,101533.88
2022-08-07T05:24:40.688Z,101537.69
2022-08-07T05:27:07.178Z,101538.69
2022-08-07T05:29:53.724Z,101534.78
2022-08-07T05:32:20.169Z,101539.69
2022-08-07T05:34:48.151Z,101535.53
2022-08-07T05:37:16.205Z,101535.28
2022-08-07T05:40:13.850Z,101540.75
2022-08-07T05:42:39.293Z,101541.53
2022-08-07T05:45:25.783Z,101539.16
2022-08-07T05:48:02.094Z,101535.25
2022-08-07T05:50:29.180Z,101540.19
2022-08-07T05:52:55.776Z,101534.97
2022-08-07T05:55:22.111Z,101530.06
2022-08-07T05:57:49.315Z,101532.28
2022-08-07T06:00:19.570Z,101535.38
2022-08-07T06:02:46.983Z,101544.72
2022-08-07T06:05:15.589Z,101534.38
2022-08-07T06:08:13.284Z,101532.47
2022-08-07T06:10:28.732Z,101531.00
2022-08-07T06:12:55.067Z,101535.75
2022-08-07T06:15:21.419Z,101529.34
2022-08-07T06:17:53.742Z,101537.81
2022-08-07T06:20:31.838Z,101532.19
2022-08-07T06:23:46.765Z,101541.47
2022-08-07T06:25:57.028Z,101532.91
2022-08-07T06:28:27.577Z,101536.78
2022-08-07T06:30:58.144Z,101536.22
2022-08-07T06:33:24.938Z,101543.88
2022-08-07T06:36:12.415Z,101537.06
2022-08-07T06:38:37.751Z,101536.63
2022-08-07T06:41:04.441Z,101543.03
2022-08-07T06:43:39.602Z,101546.19
2022-08-07T06:46:06.522Z,101551.63
2022-08-07T06:48:38.794Z,101543.72
2022-08-07T06:51:09.447Z,101541.44
2022-08-07T06:55:29.106Z,101545.03
2022-08-07T06:56:25.685Z,101550.63
2022-08-07T07:00:13.312Z,101556.63
2022-08-07T07:01:48.933Z,101547.22
2022-08-07T07:04:32.474Z,101546.78
2022-08-07T07:07:00.915Z,101551.78
2022-08-07T07:09:31.141Z,101550.19
2022-08-07T07:12:07.747Z,101550.63
2022-08-07T07:14:40.335Z,101545.34
2022-08-07T07:17:06.966Z,101550.25
2022-08-07T07:19:58.031Z,101549.97
2022-08-07T07:22:39.810Z,101551.97
2022-08-07T07:26:31.696Z,101543.97
2022-08-07T07:28:02.698Z,101541.13
2022-08-07T07:30:37.992Z,101546.00
2022-08-07T07:33:06.313Z,101541.97
2022-08-07T07:35:44.061Z,101539.63
2022-08-07T07:38:20.576Z,101541.47
2022-08-07T07:40:47.881Z,101546.00
2022-08-07T07:43:18.612Z,101543.56
2022-08-07T07:46:37.201Z,101535.53
2022-08-07T07:48:35.833Z,101538.41
2022-08-07T07:51:02.738Z,101527.66
2022-08-07T07:53:34.947Z,101531.63
2022-08-07T07:56:01.426Z,101526.78
2022-08-07T07:58:30.583Z,101539.56
2022-08-07T08:02:05.182Z,101530.84
2022-08-07T08:04:10.961Z,101540.41
2022-08-07T08:06:36.217Z,101530.22
2022-08-07T08:09:03.019Z,101530.88
2022-08-07T08:12:00.120Z,101528.78
2022-08-07T08:14:15.657Z,101528.03
2022-08-07T08:16:42.261Z,101530.81
2022-08-07T08:20:15.682Z,101537.22
2022-08-07T08:22:03.895Z,101525.25
2022-08-07T08:24:44.967Z,101518.75
2022-08-07T08:27:17.375Z,101525.22
2022-08-07T08:29:55.584Z,101520.91
2022-08-07T08:32:25.030Z,101530.06
2022-08-07T08:34:52.010Z,101535.50
2022-08-07T08:37:59.606Z,101529.41
2022-08-07T08:40:04.802Z,101537.06
2022-08-07T08:42:41.340Z,101535.50
2022-08-07T08:45:12.998Z,101537.50
2022-08-07T08:47:51.907Z,101534.69
2022-08-07T08:50:28.624Z,101529.63
2022-08-07T08:53:05.734Z,101534.63
2022-08-07T08:55:54.413Z,101540.38
2022-08-07T08:58:28.449Z,101533.91
2022-08-07T09:00:58.339Z,101529.94
2022-08-07T09:03:47.573Z,101531.13
2022-08-07T09:06:14.534Z,101527.50
2022-08-07T09:08:41.788Z,101532.34
2022-08-07T09:11:10.910Z,101527.63
2022-08-07T09:13:40.450Z,101526.00
2022-08-07T09:16:20.289Z,101523.16
2022-08-07T09:18:53.132Z,101522.84
2022-08-07T09:21:57.885Z,101524.84
2022-08-07T09:24:30.925Z,101513.72
2022-08-07T09:26:57.347Z,101514.47
2022-08-07T09:30:03.367Z,101508.78
2022-08-07T09:32:17.222Z,101505.59
2022-08-07T09:34:45.091Z,101503.97
2022-08-07T09:37:20.445Z,101511.13
2022-08-07T09:40:02.834Z,101508.72
2022-08-07T09:42:33.756Z,101505.88
2022-08-07T09:46:28.547Z,101495.53
2022-08-07T09:47:59.591Z,101500.41
2022-08-07T09:50:30.317Z,101496.44
2022-08-07T09:52:56.713Z,101488.84
2022-08-07T09:55:36.827Z,101482.50
2022-08-07T09:58:09.481Z,101480.81
2022-08-07T10:00:41.038Z,101478.88
2022-08-07T10:04:05.163Z,101482.09
2022-08-07T10:06:00.030Z,101484.91
2022-08-07T10:08:28.999Z,101478.84
2022-08-07T10:11:16.802Z,101476.47
2022-08-07T10:14:01.027Z,101472.53
2022-08-07T10:16:31.382Z,101469.00
2022-08-07T10:19:00.792Z,101471.00
2022-08-07T10:22:01.184Z,101467.31
2022-08-07T10:24:18.423Z,101468.56
2022-08-07T10:26:53.251Z,101460.88
2022-08-07T10:29:19.829Z,101464.91
2022-08-07T10:31:46.157Z,101466.94
2022-08-07T10:34:27.339Z,101466.16
2022-08-07T10:37:04.121Z,101468.56
2022-08-07T10:39:41.942Z,101457.44
2022-08-07T10:42:21.310Z,101459.84
2022-08-07T10:44:57.769Z,101461.41
2022-08-07T10:47:26.577Z,101463.75
2022-08-07T10:50:00.453Z,101462.88
2022-08-07T10:52:31.939Z,101449.72
2022-08-07T10:55:21.268Z,101455.75
2022-08-07T10:57:56.278Z,101450.25
2022-08-07T11:00:36.780Z,101448.19
2022-08-07T11:03:11.367Z,101445.50
2022-08-07T11:05:49.207Z,101452.66
2022-08-07T11:08:17.664Z,101446.28
2022-08-07T11:10:49.990Z,101440.69
2022-08-07T11:14:42.402Z,101437.50
2022-08-07T11:16:11.006Z,101446.28
2022-08-07T11:18:40.146Z,101444.66
2022-08-07T11:21:10.365Z,101439.50
2022-08-07T11:23:40.562Z,101440.25
2022-08-07T11:26:06.913Z,101439.09
2022-08-07T11:28:33.252Z,101433.50
2022-08-07T11:30:59.582Z,101427.97
2022-08-07T11:33:59.771Z,101430.38
2022-08-07T11:36:12.421Z,101428.38
2022-08-07T11:38:42.456Z,101427.56
2022-08-07T11:41:22.406Z,101422.78
2022-08-07T11:44:12.162Z,101419.19
2022-08-07T11:46:39.323Z,101415.97
2022-08-07T11:49:28.611Z,101417.97
2022-08-07T11:51:52.048Z,101423.94
2022-08-07T11:54:22.124Z,101415.97
2022-08-07T11:56:53.036Z,101407.59
2022-08-07T12:00:10.211Z,101409.59
2022-08-07T12:02:10.180Z,101409.22
2022-08-07T12:04:46.834Z,101413.56
2022-08-07T12:07:20.346Z,101400.84
2022-08-07T12:09:53.333Z,101404.03
2022-08-07T12:12:19.657Z,101400.44
2022-08-07T12:14:46.062Z,101398.03
2022-08-07T12:17:22.192Z,101401.63
2022-08-07T12:20:02.634Z,101402.44
2022-08-07T12:22:38.899Z,101388.47
2022-08-07T12:26:03.522Z,101389.66
2022-08-07T12:28:09.343Z,101393.66
2022-08-07T12:30:36.788Z,101394.03
2022-08-07T12:33:18.632Z,101393.63
2022-08-07T12:35:48.312Z,101384.09
2022-08-07T12:38:38.623Z,101386.88
2022-08-07T12:41:10.121Z,101378.47
2022-08-07T12:44:02.791Z,101381.69
2022-08-07T12:46:26.277Z,101386.88
2022-08-07T12:48:58.974Z,101380.88
2022-08-07T12:51:51.523Z,101384.06
2022-08-07T12:54:37.379Z,101378.50
2022-08-07T12:57:09.643Z,101380.91
2022-08-07T12:59:54.712Z,101375.69
2022-08-07T13:02:22.135Z,101373.69
2022-08-07T13:05:01.666Z,101372.91
2022-08-07T13:08:12.884Z,101372.91
2022-08-07T13:10:37.075Z,101366.53
2022-08-07T13:13:06.939Z,101362.53
2022-08-07T13:15:33.277Z,101371.31
2022-08-07T13:17:59.686Z,101359.72
2022-08-07T13:20:27.496Z,101360.16
2022-08-07T13:22:54.230Z,101357.75
2022-08-07T13:25:28.879Z,101358.94
2022-08-07T13:28:12.604Z,101355.75
2022-08-07T13:30:48.676Z,101355.34
2022-08-07T13:34:31.877Z,101354.97
2022-08-07T13:36:07.892Z,101351.34
2022-08-07T13:38:34.254Z,101350.56
2022-08-07T13:41:03.515Z,101357.75
2022-08-07T13:43:29.862Z,101349.00
2022-08-07T13:46:11.976Z,101344.59
2022-08-07T13:48:52.011Z,101348.16
2022-08-07T13:52:22.682Z,101339.00
2022-08-07T13:54:16.373Z,101336.19
2022-08-07T13:56:52.173Z,101340.19
2022-08-07T13:59:22.313Z,101332.22
2022-08-07T14:02:04.088Z,101335.41
2022-08-07T14:04:36.190Z,101324.63
2022-08-07T14:07:06.543Z,101321.81
2022-08-07T14:10:01.534Z,101326.25
2022-08-07T14:12:28.062Z,101320.63
2022-08-07T14:14:57.378Z,101323.00
2022-08-07T14:18:13.598Z,101327.41
2022-08-07T14:20:43.229Z,101316.63
2022-08-07T14:23:02.654Z,101317.03
2022-08-07T14:25:39.582Z,101319.00
2022-08-07T14:28:13.778Z,101306.63
2022-08-07T14:30:40.577Z,101297.75
2022-08-07T14:33:07.161Z,101301.25
2022-08-07T14:35:42.945Z,101301.97
2022-08-07T14:38:26.588Z,101300.47
2022-08-07T14:40:57.338Z,101297.75
2022-08-07T14:43:57.141Z,101296.56
2022-08-07T14:46:13.551Z,101289.63
2022-08-07T14:48:48.449Z,101296.47
2022-08-07T14:51:17.238Z,101285.28
2022-08-07T14:56:30.591Z,101276.22
2022-08-07T14:58:56.972Z,101278.69
2022-08-07T15:01:26.127Z,101274.94
2022-08-07T15:04:08.650Z,101266.84
2022-08-07T15:06:37.686Z,101274.47
2022-08-07T15:09:04.026Z,101276.94
2022-08-07T15:12:01.254Z,101270.94
2022-08-07T15:14:30.679Z,101273.38
2022-08-07T15:17:00.632Z,101272.16
2022-08-07T15:22:33.473Z,101268.09
2022-08-07T15:25:17.673Z,101270.13
2022-08-07T15:28:32.905Z,101261.66
2022-08-07T15:31:05.166Z,101253.66
2022-08-07T15:36:10.679Z,101258.84
2022-08-07T15:38:51.159Z,101258.00
2022-08-07T15:41:23.696Z,101253.88
2022-08-07T15:44:04.970Z,101257.78
2022-08-07T15:46:38.584Z,101245.97
2022-08-07T15:49:16.470Z,101249.38
2022-08-07T15:54:24.277Z,101243.75
2022-08-07T15:56:52.774Z,101242.19
2022-08-07T15:59:19.148Z,101239.66
2022-08-07T16:02:02.446Z,101243.16
2022-08-07T16:04:29.155Z,101238.72
2022-08-07T16:06:58.421Z,101236.22
2022-08-07T16:09:41.162Z,101238.22
2022-08-07T16:12:12.154Z,101234.66
2022-08-07T16:14:38.784Z,101225.78
2022-08-07T16:17:14.989Z,101233.41
2022-08-07T16:19:59.072Z,101230.13
2022-08-07T16:22:33.907Z,101227.41
2022-08-07T16:25:02.345Z,101225.31
2022-08-07T16:27:40.685Z,101231.00
2022-08-07T16:30:30.317Z,101227.00
2022-08-07T16:32:54.945Z,101231.22
2022-08-07T16:35:52.351Z,101225.63
2022-08-07T16:38:09.778Z,101224.00
2022-08-07T16:40:56.966Z,101223.13
2022-08-07T16:43:24.422Z,101230.38
2022-08-07T16:47:03.484Z,101228.72
2022-08-07T16:50:26.604Z,101226.34
2022-08-07T16:52:01.847Z,101230.28
2022-08-07T16:54:33.067Z,101225.88
2022-08-07T16:57:00.916Z,101230.69
2022-08-07T16:59:46.217Z,101232.66
2022-08-07T17:02:13.507Z,101228.72
2022-08-07T17:04:59.851Z,101233.53
2022-08-07T17:07:28.469Z,101231.53
2022-08-07T17:10:33.040Z,101230.75
2022-08-07T17:13:01.070Z,101241.06
2022-08-07T17:15:44.279Z,101240.22
2022-08-07T17:18:16.126Z,101242.81
2022-08-07T17:20:42.688Z,101239.53
2022-08-07T17:23:15.874Z,101238.25
2022-08-07T17:25:47.369Z,101247.84
2022-08-07T17:28:17.687Z,101253.47
2022-08-07T17:30:58.033Z,101250.34
2022-08-07T17:34:08.791Z,101253.13
2022-08-07T17:36:13.633Z,101250.72
2022-08-07T17:38:47.059Z,101250.75
2022-08-07T17:42:03.446Z,101257.50
2022-08-07T17:44:06.515Z,101250.34
2022-08-07T17:46:37.020Z,101253.53
2022-08-07T17:49:09.148Z,101264.69
2022-08-07T17:52:00.895Z,101264.75
2022-08-07T17:54:29.571Z,101266.31
2022-08-07T17:57:18.689Z,101259.91
2022-08-07T17:59:45.728Z,101270.75
2022-08-07T18:02:17.053Z,101267.56
2022-08-07T18:04:49.671Z,101274.78
2022-08-07T18:07:20.199Z,101275.16
2022-08-07T18:10:07.355Z,101274.78
2022-08-07T18:12:36.691Z,101274.81
2022-08-07T18:15:08.371Z,101272.41
2022-08-07T18:18:47.450Z,101269.22
2022-08-07T18:21:11.607Z,101282.03
2022-08-07T18:23:42.768Z,101281.66
2022-08-07T18:26:01.328Z,101282.13
2022-08-07T18:28:33.999Z,101279.34
2022-08-07T18:31:01.095Z,101276.97
2022-08-07T18:33:27.563Z,101282.56
2022-08-07T18:35:55.805Z,101284.19
2022-08-07T18:38:57.524Z,101282.16
2022-08-07T18:41:17.140Z,101283.41
2022-08-07T18:43:48.913Z,101290.66
2022-08-07T18:46:25.081Z,101295.03
2022-08-07T18:50:19.274Z,101298.22
2022-08-07T18:52:33.560Z,101293.44
2022-08-07T18:54:27.897Z,101294.66
2022-08-07T18:57:29.478Z,101293.84
2022-08-07T18:59:59.421Z,101298.66
2022-08-07T19:02:34.345Z,101292.28
2022-08-07T19:05:10.671Z,101310.66
2022-08-07T19:07:51.726Z,101304.31
2022-08-07T19:10:24.014Z,101309.06
2022-08-07T19:12:59.546Z,101310.28
2022-08-07T19:16:05.959Z,101305.88
2022-08-07T19:18:34.479Z,101309.06
2022-08-07T19:21:08.972Z,101305.84
2022-08-07T19:23:58.061Z,101307.47
2022-08-07T19:26:29.104Z,101304.69
2022-08-07T19:30:56.435Z,101310.69
2022-08-07T19:32:10.808Z,101307.09
2022-08-07T19:34:34.304Z,101301.09
2022-08-07T19:37:09.831Z,101311.47
2022-08-07T19:39:57.782Z,101308.28
2022-08-07T19:42:30.405Z,101314.66
2022-08-07T19:44:58.957Z,101315.06
2022-08-07T19:47:27.737Z,101313.88
2022-08-07T19:49:58.346Z,101313.47
2022-08-07T19:52:30.283Z,101314.25
2022-08-07T19:54:57.712Z,101310.63
2022-08-07T19:58:02.492Z,101309.84
2022-08-07T20:00:11.334Z,101313.41
2022-08-07T20:02:54.510Z,101315.03
2022-08-07T20:05:21.359Z,101317.44
2022-08-07T20:07:51.055Z,101307.44
2022-08-07T20:10:35.351Z,101318.63
2022-08-07T20:13:06.059Z,101314.66
2022-08-07T20:15:37.080Z,101318.66
2022-08-07T20:18:05.612Z,101319.41
2022-08-07T20:20:32.095Z,101324.59
2022-08-07T20:22:59.106Z,101319.84
2022-08-07T20:25:27.824Z,101321.81
2022-08-07T20:27:58.537Z,101316.22
2022-08-07T20:30:29.864Z,101321.03
2022-08-07T20:32:57.381Z,101319.44
2022-08-07T20:35:27.239Z,101323.84
2022-08-07T20:37:58.379Z,101321.06
2022-08-07T20:40:33.367Z,101326.63
2022-08-07T20:43:01.068Z,101319.06
2022-08-07T20:45:33.696Z,101323.03
2022-08-07T20:48:28.963Z,101322.66
2022-08-07T20:50:59.636Z,101328.25
2022-08-07T20:54:03.433Z,101321.06
2022-08-07T20:56:12.650Z,101316.63
2022-08-07T20:58:42.629Z,101314.22
2022-08-07T21:01:19.479Z,101308.66
2022-08-07T21:04:07.212Z,101309.47
2022-08-07T21:06:33.253Z,101313.47
2022-08-07T21:09:00.008Z,101313.06
2022-08-07T21:11:40.360Z,101316.25
2022-08-07T21:14:31.973Z,101311.50
2022-08-07T21:18:00.614Z,101316.28
2022-08-07T21:19:51.497Z,101317.47
2022-08-07T21:22:33.398Z,101323.06
2022-08-07T21:25:00.033Z,101311.44
2022-08-07T21:27:40.031Z,101315.47
2022-08-07T21:30:14.539Z,101322.25
2022-08-07T21:32:50.190Z,101318.63
2022-08-07T21:35:18.537Z,101317.84
2022-08-07T21:38:04.979Z,101315.06
2022-08-07T21:40:36.050Z,101324.63
2022-08-07T21:43:06.412Z,101326.25
2022-08-07T21:46:05.437Z,101321.81
2022-08-07T21:48:28.452Z,101319.41
2022-08-07T21:50:59.875Z,101315.44
2022-08-07T21:53:28.250Z,101320.63
2022-08-07T21:55:55.596Z,101312.69
2022-08-07T21:58:30.459Z,101321.44
2022-08-07T22:01:00.182Z,101323.81
2022-08-07T22:03:31.072Z,101325.00
2022-08-07T22:05:59.054Z,101321.41
2022-08-07T22:08:25.621Z,101324.22
2022-08-07T22:10:52.133Z,101324.59
2022-08-07T22:13:23.904Z,101321.41
2022-08-07T22:16:44.837Z,101323.41
2022-08-07T22:18:38.522Z,101319.06
2022-08-07T22:21:07.467Z,101325.78
2022-08-07T22:23:40.529Z,101332.56
2022-08-07T22:26:07.676Z,101322.59
2022-08-07T22:28:35.416Z,101325.38
2022-08-07T22:31:04.906Z,101322.56
2022-08-07T22:33:51.009Z,101326.97
2022-08-07T22:36:18.460Z,101323.38
2022-08-07T22:38:48.495Z,101324.19
2022-08-07T22:41:14.966Z,101323.34
2022-08-07T22:43:41.461Z,101331.69
2022-08-07T22:46:56.052Z,101326.06
2022-08-07T22:49:06.531Z,101325.66
2022-08-07T22:51:36.761Z,101324.84
2022-08-07T22:54:06.453Z,101329.28
2022-08-07T22:56:37.386Z,101338.44
2022-08-07T22:59:05.009Z,101332.03
2022-08-07T23:01:41.916Z,101338.75
2022-08-07T23:04:16.256Z,101339.19
2022-08-07T23:06:42.975Z,101337.28
2022-08-07T23:10:04.946Z,101332.09
2022-08-07T23:12:05.102Z,101338.88
2022-08-07T23:14:32.156Z,101336.88
2022-08-07T23:16:58.693Z,101343.22
2022-08-07T23:19:48.288Z,101343.22
2022-08-07T23:22:12.732Z,101350.81
2022-08-07T23:24:45.399Z,101349.22
2022-08-07T23:27:13.336Z,101343.16
2022-08-07T23:29:43.413Z,101352.69
2022-08-07T23:34:19.740Z,101355.53
2022-08-07T23:35:12.640Z,101358.94
2022-08-07T23:38:01.278Z,101366.41
2022-08-07T23:40:26.527Z,101364.38
2022-08-07T23:42:53.967Z,101361.91
2022-08-07T23:45:33.563Z,101361.63
2022-08-07T23:48:07.992Z,101366.84
2022-08-07T23:50:36.752Z,101365.19
2022-08-07T23:53:06.395Z,101355.53
2022-08-07T23:55:52.987Z,101355.13
2022-08-07T23:58:24.104Z,101355.53
